EDDK

Cologne Bonn Airport

Cologne, Germany
METAR EDDK 191650Z 32010KT CAVOK 27/12 Q1018 BECMG 30005KT
Observed Flight Rules
Aug-19 @ 16:50 UTC (24 minutes ago) Visual Flight Rules
Wind Visibility Clouds
320° at 10 knots 10,000+ meters
  • Clear skies
Temperatures Readings
Current 27°C / 81°F
Dewpoint 12°C / 54°F
Humidity 39%
Altimeter 30.06" Hg
Pressure 1018 hPa
Elevation 99
METAR EDDK 191650Z 32010KT CAVOK 27/12 Q1018 BECMG 30005KT
Observed Flight Rules
Aug-19 @ 16:50 UTC
(24 minutes ago)
VFR
Wind Visibility
320° at 10 knots 10,000+ meters
Clouds
  • Clear skies
Temperature Dewpoint
27°C / 81°F 12°C / 54°F
Humidity Altimeter Pressure
39% 30.06" Hg 1018 hPa